Time;durP1;ratioP1;P1;durP2;ratioP2;P2;SDS_P1;SDS_P2;PMS_P1;PMS_P2;Temp;Humidity;BMP_temperature;BMP_pressure;BME280_temperature;BME280_humidity;BME280_pressure;Samples;Min_cycle;Max_cycle;Signal;HPM_P1;HPM_P2
2022/07/17 00:01:12;;;;;;;7.30;5.13;;;27.00;99.90;;;;;;5090331;28;20432;-70
2022/07/17 00:03:37;;;;;;;6.35;4.82;;;26.90;99.90;;;;;;5090601;28;20099;-71
2022/07/17 00:06:03;;;;;;;4.82;4.38;;;26.90;99.90;;;;;;5090343;28;20020;-72
2022/07/17 00:08:31;;;;;;;16.17;6.28;;;26.90;99.90;;;;;;5090731;28;20169;-72
2022/07/17 00:10:57;;;;;;;9.27;4.68;;;26.90;99.90;;;;;;5088171;28;20099;-72
2022/07/17 00:13:24;;;;;;;10.85;5.47;;;26.80;99.90;;;;;;5074596;28;20062;-72
2022/07/17 00:15:51;;;;;;;10.23;5.00;;;26.80;99.90;;;;;;5074198;28;20112;-72
2022/07/17 00:18:17;;;;;;;12.32;5.65;;;26.80;99.90;;;;;;5074210;28;20021;-72
2022/07/17 00:20:43;;;;;;;13.05;5.03;;;26.70;99.90;;;;;;5074044;28;20032;-72
2022/07/17 00:23:09;;;;;;;6.95;5.47;;;26.60;99.90;;;;;;5072753;28;20024;-72
2022/07/17 00:25:35;;;;;;;8.13;5.05;;;26.60;99.90;;;;;;5074368;28;20027;-71
2022/07/17 00:28:01;;;;;;;7.28;5.78;;;26.50;99.90;;;;;;5074221;28;20029;-72
2022/07/17 00:30:27;;;;;;;10.27;5.70;;;26.50;99.90;;;;;;5074058;28;20035;-72
2022/07/17 00:32:53;;;;;;;7.75;5.10;;;26.50;99.90;;;;;;5073394;28;20103;-71
2022/07/17 00:35:19;;;;;;;5.90;5.40;;;26.40;99.90;;;;;;5074097;28;20046;-72
2022/07/17 00:37:47;;;;;;;6.15;5.13;;;26.40;99.90;;;;;;5078859;28;20324;-71
2022/07/17 00:40:17;;;;;;;11.27;5.10;;;26.20;99.90;;;;;;5073344;28;20035;-71
2022/07/17 00:42:43;;;;;;;6.63;5.75;;;26.00;99.90;;;;;;5090559;28;20051;-73
2022/07/17 00:45:10;;;;;;;7.78;6.35;;;25.70;99.90;;;;;;5105119;28;20031;-71
2022/07/17 00:47:56;;;;;;;7.32;6.43;;;25.50;99.90;;;;;;5113233;28;20050;-71
2022/07/17 00:50:24;;;;;;;6.97;6.10;;;25.30;99.90;;;;;;5111400;28;20123;-71
2022/07/17 00:52:50;;;;;;;12.40;6.32;;;25.30;99.90;;;;;;5113569;28;20041;-71
2022/07/17 00:55:17;;;;;;;8.80;4.95;;;25.30;99.90;;;;;;5111382;28;20028;-71
2022/07/17 00:57:46;;;;;;;11.50;5.50;;;25.20;99.90;;;;;;5111121;28;20016;-71
2022/07/17 01:00:13;;;;;;;8.40;5.43;;;25.20;99.90;;;;;;5098957;28;20027;-70
2022/07/17 01:02:39;;;;;;;8.20;6.05;;;25.20;99.90;;;;;;5081919;28;20029;-71
2022/07/17 01:05:05;;;;;;;10.02;4.75;;;25.00;99.90;;;;;;5084374;28;20032;-72
2022/07/17 01:07:33;;;;;;;7.07;6.40;;;25.10;99.90;;;;;;5096265;28;20035;-72
2022/07/17 01:09:58;;;;;;;8.02;5.55;;;25.20;99.90;;;;;;5095602;28;20016;-72
2022/07/17 01:12:25;;;;;;;14.52;6.05;;;25.10;99.90;;;;;;5074202;28;20028;-72
2022/07/17 01:14:52;;;;;;;7.05;6.35;;;25.10;99.90;;;;;;5074181;28;20025;-71
2022/07/17 01:17:19;;;;;;;6.93;6.32;;;25.20;99.90;;;;;;5074208;28;20393;-71
2022/07/17 01:19:44;;;;;;;7.07;6.38;;;25.10;99.90;;;;;;5073545;28;20479;-71
2022/07/17 01:22:10;;;;;;;12.20;6.18;;;25.20;99.90;;;;;;5073054;28;20116;-71
2022/07/17 01:24:39;;;;;;;9.63;6.35;;;25.20;99.90;;;;;;5072189;28;20051;-72
2022/07/17 01:27:05;;;;;;;7.03;5.45;;;25.30;99.90;;;;;;5073216;28;20028;-71
2022/07/17 01:29:31;;;;;;;15.20;6.07;;;25.30;99.90;;;;;;5071289;28;20033;-72
2022/07/17 01:31:57;;;;;;;12.15;5.38;;;25.30;99.90;;;;;;5085805;28;20040;-71
2022/07/17 01:34:23;;;;;;;14.02;6.55;;;25.30;99.90;;;;;;5093139;28;20032;-71
2022/07/17 01:36:49;;;;;;;10.75;5.93;;;25.50;99.90;;;;;;5093058;28;20069;-71
2022/07/17 01:39:15;;;;;;;13.82;6.70;;;25.40;99.90;;;;;;5092871;28;20032;-71
2022/07/17 01:41:40;;;;;;;12.52;5.30;;;25.40;99.90;;;;;;5093003;28;20032;-71
2022/07/17 01:44:08;;;;;;;12.38;6.18;;;25.20;99.90;;;;;;5093294;28;20016;-72
2022/07/17 01:46:34;;;;;;;6.45;5.30;;;25.20;99.90;;;;;;5093007;28;20023;-72
2022/07/17 01:49:03;;;;;;;5.55;5.10;;;25.10;99.90;;;;;;5091337;28;20485;-71
2022/07/17 01:51:29;;;;;;;6.45;5.85;;;25.10;99.90;;;;;;5091835;28;20027;-71
2022/07/17 01:53:54;;;;;;;6.30;5.53;;;25.20;99.90;;;;;;5092482;28;20024;-72
2022/07/17 01:56:21;;;;;;;6.68;5.30;;;25.10;99.90;;;;;;5091321;28;20054;-72
2022/07/17 01:58:47;;;;;;;5.78;5.28;;;25.00;99.90;;;;;;5091205;28;20039;-72
2022/07/17 02:01:12;;;;;;;5.90;4.90;;;25.10;99.90;;;;;;5091335;28;20024;-72
2022/07/17 02:03:38;;;;;;;5.95;5.35;;;25.20;99.90;;;;;;5092551;28;20199;-72
2022/07/17 02:06:04;;;;;;;5.40;4.90;;;25.20;99.90;;;;;;5092540;28;20347;-72
2022/07/17 02:08:30;;;;;;;7.95;5.22;;;25.40;99.90;;;;;;5092529;28;20047;-72
2022/07/17 02:10:55;;;;;;;14.60;5.72;;;25.30;99.90;;;;;;5092340;28;20448;-71
2022/07/17 02:13:21;;;;;;;5.40;4.90;;;25.10;99.90;;;;;;5091457;28;20051;-72
2022/07/17 02:15:47;;;;;;;11.77;5.45;;;25.10;99.90;;;;;;5091493;28;20477;-71
2022/07/17 02:18:12;;;;;;;6.03;5.38;;;25.10;99.90;;;;;;5092678;28;20473;-72
2022/07/17 02:20:38;;;;;;;5.60;4.93;;;25.00;99.90;;;;;;5091160;28;20035;-71
2022/07/17 02:23:04;;;;;;;12.35;5.75;;;25.20;99.90;;;;;;5092494;28;20028;-71
2022/07/17 02:25:30;;;;;;;7.30;4.47;;;25.10;99.90;;;;;;5092557;28;20119;-70
2022/07/17 02:27:55;;;;;;;5.93;4.53;;;24.90;99.90;;;;;;5092978;28;20024;-71
2022/07/17 02:30:21;;;;;;;8.38;4.30;;;24.80;99.90;;;;;;5092818;28;20056;-71
2022/07/17 02:32:47;;;;;;;6.90;5.05;;;24.90;99.90;;;;;;5085955;28;20586;-70
2022/07/17 02:35:13;;;;;;;6.65;5.10;;;24.80;99.90;;;;;;5071613;28;20390;-72
2022/07/17 02:37:41;;;;;;;5.32;4.82;;;24.80;99.90;;;;;;5073741;28;20024;-71
2022/07/17 02:40:08;;;;;;;7.80;5.35;;;24.70;99.90;;;;;;5073464;28;20028;-72
2022/07/17 02:42:34;;;;;;;7.60;5.18;;;24.90;99.90;;;;;;5073372;28;20027;-72
2022/07/17 02:44:59;;;;;;;5.53;4.88;;;24.90;99.90;;;;;;5072294;28;20025;-72
2022/07/17 02:47:26;;;;;;;6.40;5.13;;;24.70;99.90;;;;;;5074216;28;20021;-72
2022/07/17 02:49:53;;;;;;;5.57;4.55;;;24.70;99.90;;;;;;5073315;28;20036;-72
2022/07/17 02:52:19;;;;;;;6.30;5.03;;;24.90;99.90;;;;;;5071733;28;20498;-72
2022/07/17 02:54:45;;;;;;;17.15;6.28;;;24.80;99.90;;;;;;5070540;28;20124;-72
2022/07/17 02:57:11;;;;;;;5.20;4.53;;;24.90;99.90;;;;;;5070143;28;20032;-72
2022/07/17 02:59:37;;;;;;;5.82;4.93;;;24.80;99.90;;;;;;5069840;28;20077;-72
2022/07/17 03:02:03;;;;;;;8.60;4.88;;;24.80;99.90;;;;;;5073795;28;20067;-72
2022/07/17 03:04:28;;;;;;;7.18;4.72;;;25.00;99.90;;;;;;5077865;28;20031;-72
2022/07/17 03:06:54;;;;;;;5.90;4.75;;;25.00;99.90;;;;;;5069772;28;20556;-71
2022/07/17 03:09:20;;;;;;;6.30;4.05;;;25.00;99.90;;;;;;5070985;28;20044;-71
2022/07/17 03:11:46;;;;;;;9.40;5.13;;;24.90;99.90;;;;;;5069648;28;20098;-72
2022/07/17 03:14:11;;;;;;;5.57;4.93;;;24.80;99.90;;;;;;5071487;28;20033;-71
2022/07/17 03:16:37;;;;;;;4.28;3.88;;;24.80;99.90;;;;;;5071273;28;20103;-71
2022/07/17 03:19:03;;;;;;;17.75;5.10;;;24.90;99.90;;;;;;5070689;28;20036;-72
2022/07/17 03:21:29;;;;;;;4.53;4.05;;;25.00;99.90;;;;;;5071047;28;20094;-70
2022/07/17 03:23:54;;;;;;;7.97;3.78;;;24.90;99.90;;;;;;5073388;28;20031;-71
2022/07/17 03:26:20;;;;;;;7.32;4.65;;;25.00;99.90;;;;;;5073861;28;20505;-72
2022/07/17 03:28:46;;;;;;;5.38;4.47;;;24.90;99.90;;;;;;5070565;28;20335;-71
2022/07/17 03:31:12;;;;;;;11.30;4.10;;;25.00;99.90;;;;;;5071024;28;20505;-71
2022/07/17 03:33:37;;;;;;;9.80;4.10;;;25.00;99.90;;;;;;5073857;28;20552;-72
2022/07/17 03:36:03;;;;;;;7.57;4.93;;;25.00;99.90;;;;;;5070697;28;20687;-72
2022/07/17 03:38:29;;;;;;;7.05;3.88;;;25.00;99.90;;;;;;5071001;28;20051;-71
2022/07/17 03:40:55;;;;;;;4.40;4.05;;;25.10;99.90;;;;;;5070680;28;20107;-72
2022/07/17 03:43:21;;;;;;;4.38;3.92;;;25.10;99.90;;;;;;5070536;28;20032;-72
2022/07/17 03:45:46;;;;;;;5.07;3.67;;;25.00;99.90;;;;;;5069979;28;20028;-71
2022/07/17 03:48:12;;;;;;;5.43;3.40;;;25.00;99.90;;;;;;5070048;28;20056;-71
2022/07/17 03:50:38;;;;;;;6.57;3.10;;;25.00;99.90;;;;;;5069984;28;20027;-72
2022/07/17 03:53:04;;;;;;;3.90;3.50;;;25.00;99.90;;;;;;5069948;28;20070;-72
2022/07/17 03:55:30;;;;;;;5.82;4.05;;;25.00;99.90;;;;;;5069194;28;20404;-72
2022/07/17 03:57:55;;;;;;;5.35;4.30;;;25.00;99.90;;;;;;5068912;28;20025;-72
2022/07/17 04:00:21;;;;;;;3.80;3.38;;;25.10;99.90;;;;;;5069922;28;20469;-71
2022/07/17 04:02:47;;;;;;;6.65;3.50;;;25.10;99.90;;;;;;5072950;28;20046;-72
2022/07/17 04:05:13;;;;;;;10.45;3.80;;;25.10;99.90;;;;;;5070013;28;20024;-72
2022/07/17 04:07:40;;;;;;;3.60;3.28;;;25.10;99.90;;;;;;5070242;28;20378;-72
2022/07/17 04:10:08;;;;;;;3.78;3.38;;;25.10;99.90;;;;;;5070306;28;20381;-71
2022/07/17 04:12:34;;;;;;;4.18;3.47;;;25.20;99.90;;;;;;5070362;28;20029;-72
2022/07/17 04:15:00;;;;;;;9.48;3.80;;;25.10;99.90;;;;;;5070438;28;20031;-72
2022/07/17 04:17:26;;;;;;;6.95;4.00;;;25.10;99.90;;;;;;5070503;28;20486;-72
2022/07/17 04:19:52;;;;;;;4.35;3.85;;;25.10;99.90;;;;;;5070441;28;20028;-71
2022/07/17 04:22:18;;;;;;;7.40;4.13;;;25.00;99.90;;;;;;5069446;28;20028;-71
2022/07/17 04:24:44;;;;;;;4.25;3.88;;;25.00;99.90;;;;;;5070239;28;20028;-72
2022/07/17 04:27:10;;;;;;;7.25;4.03;;;25.10;99.90;;;;;;5069423;28;20524;-72
2022/07/17 04:29:36;;;;;;;6.88;3.97;;;25.10;99.90;;;;;;5070372;28;20021;-71
2022/07/17 04:32:02;;;;;;;6.30;3.45;;;25.10;99.90;;;;;;5071460;28;20033;-73
2022/07/17 04:34:28;;;;;;;6.35;3.55;;;25.10;99.90;;;;;;5090061;28;20039;-71
2022/07/17 04:36:54;;;;;;;4.10;3.80;;;25.00;99.90;;;;;;5090932;28;20028;-72
2022/07/17 04:39:20;;;;;;;4.93;3.00;;;25.10;99.90;;;;;;5088869;28;20031;-71
2022/07/17 04:41:46;;;;;;;6.25;3.72;;;25.00;99.90;;;;;;5089296;28;20028;-71
2022/07/17 04:44:11;;;;;;;4.35;3.97;;;25.00;99.90;;;;;;5088794;28;20540;-71
2022/07/17 04:46:37;;;;;;;7.90;3.70;;;25.20;99.90;;;;;;5088939;28;20028;-72
2022/07/17 04:49:03;;;;;;;4.95;3.55;;;25.10;99.90;;;;;;5089873;28;20071;-72
2022/07/17 04:51:29;;;;;;;3.28;2.97;;;25.10;99.90;;;;;;5089214;28;20494;-73
2022/07/17 04:53:54;;;;;;;3.97;3.65;;;25.10;99.90;;;;;;5089632;28;20062;-70
2022/07/17 04:56:20;;;;;;;5.10;3.47;;;25.10;99.90;;;;;;5090194;28;20023;-71
2022/07/17 04:58:46;;;;;;;4.07;3.50;;;25.20;99.90;;;;;;5092921;28;20096;-71
2022/07/17 05:01:11;;;;;;;4.43;3.40;;;25.20;99.90;;;;;;5092198;28;20474;-71
2022/07/17 05:03:38;;;;;;;5.10;4.03;;;25.20;99.90;;;;;;5086466;28;20410;-71
2022/07/17 05:06:04;;;;;;;6.07;3.47;;;25.30;99.90;;;;;;5073472;28;20466;-73
2022/07/17 05:08:30;;;;;;;11.07;3.92;;;25.20;99.90;;;;;;5073316;28;20017;-71
2022/07/17 05:10:55;;;;;;;13.35;4.40;;;25.10;99.90;;;;;;5073156;28;20031;-72
2022/07/17 05:13:21;;;;;;;3.28;3.08;;;25.20;99.90;;;;;;5072042;28;20119;-72
2022/07/17 05:15:49;;;;;;;8.63;3.42;;;25.10;99.90;;;;;;5073207;28;20025;-72
2022/07/17 05:18:15;;;;;;;6.80;3.13;;;25.10;99.90;;;;;;5072130;28;20029;-73
2022/07/17 05:20:41;;;;;;;6.78;3.75;;;25.20;99.90;;;;;;5071695;28;20461;-71
2022/07/17 05:23:07;;;;;;;6.20;2.67;;;25.20;99.90;;;;;;5073271;28;20020;-72
2022/07/17 05:25:32;;;;;;;4.57;3.20;;;25.10;99.90;;;;;;5071779;28;20050;-71
2022/07/17 05:27:58;;;;;;;5.05;3.40;;;25.10;99.90;;;;;;5071574;28;20025;-72
2022/07/17 05:30:25;;;;;;;5.65;3.17;;;25.30;99.90;;;;;;5073063;28;20048;-71
2022/07/17 05:32:50;;;;;;;7.78;3.45;;;25.10;99.90;;;;;;5071664;28;20020;-72
2022/07/17 05:35:16;;;;;;;5.22;3.00;;;25.20;99.90;;;;;;5078792;28;20079;-71
2022/07/17 05:37:42;;;;;;;8.65;2.63;;;25.40;99.90;;;;;;5073056;28;20025;-72
2022/07/17 05:40:08;;;;;;;3.53;2.58;;;25.30;99.90;;;;;;5072648;28;20024;-71
2022/07/17 05:42:34;;;;;;;14.18;3.03;;;25.30;99.90;;;;;;5072800;28;20025;-72
2022/07/17 05:45:00;;;;;;;5.80;2.78;;;25.40;99.90;;;;;;5073158;28;20100;-71
2022/07/17 05:47:26;;;;;;;3.17;2.70;;;25.50;99.90;;;;;;5073325;28;20013;-72
2022/07/17 05:49:51;;;;;;;4.43;3.00;;;25.40;99.90;;;;;;5082259;28;20027;-72
2022/07/17 05:52:17;;;;;;;8.10;3.30;;;25.50;99.90;;;;;;5083948;28;20477;-71
2022/07/17 05:54:43;;;;;;;6.22;3.47;;;25.50;99.90;;;;;;5076069;28;20051;-72
2022/07/17 05:57:09;;;;;;;6.30;2.90;;;25.60;99.90;;;;;;5073738;28;20020;-71
2022/07/17 05:59:35;;;;;;;4.78;2.33;;;25.60;99.90;;;;;;5071451;28;20020;-72
2022/07/17 06:02:01;;;;;;;3.47;2.40;;;25.60;99.90;;;;;;5071515;28;20090;-72
2022/07/17 06:04:27;;;;;;;5.93;2.95;;;25.60;99.90;;;;;;5092848;28;20114;-71
2022/07/17 06:06:52;;;;;;;3.40;2.38;;;25.60;99.90;;;;;;5093637;28;20095;-72
2022/07/17 06:09:18;;;;;;;3.38;2.70;;;25.50;99.90;;;;;;5093160;28;20044;-71
2022/07/17 06:11:44;;;;;;;4.13;2.22;;;25.60;99.90;;;;;;5091491;28;20023;-72
2022/07/17 06:14:10;;;;;;;3.80;3.13;;;25.70;99.90;;;;;;5091272;28;20118;-72
2022/07/17 06:16:35;;;;;;;4.53;2.00;;;25.80;99.90;;;;;;5073298;28;20024;-71
2022/07/17 06:19:01;;;;;;;4.97;2.78;;;25.80;99.90;;;;;;5077470;28;20028;-71
2022/07/17 06:21:27;;;;;;;2.83;2.60;;;25.80;99.90;;;;;;5078117;28;20131;-72
2022/07/17 06:23:53;;;;;;;6.50;2.83;;;25.80;99.90;;;;;;5076379;28;20028;-72
2022/07/17 06:26:19;;;;;;;4.45;3.22;;;25.80;99.90;;;;;;5078269;28;20040;-72
2022/07/17 06:28:45;;;;;;;6.05;3.42;;;25.80;99.90;;;;;;5077236;28;20025;-72
2022/07/17 06:31:11;;;;;;;8.07;3.08;;;25.80;99.90;;;;;;5092459;28;20020;-72
2022/07/17 06:33:38;;;;;;;8.45;2.42;;;25.90;99.90;;;;;;5094883;28;20022;-71
2022/07/17 06:36:04;;;;;;;4.63;2.55;;;25.90;99.90;;;;;;5097246;28;20016;-71
2022/07/17 06:38:30;;;;;;;7.55;2.63;;;26.00;99.90;;;;;;5099375;28;20028;-72
2022/07/17 06:40:55;;;;;;;7.97;2.95;;;26.10;99.90;;;;;;5097342;28;20024;-73
2022/07/17 06:43:22;;;;;;;7.38;3.13;;;26.10;99.90;;;;;;5078649;28;20036;-72
2022/07/17 06:45:48;;;;;;;3.40;2.20;;;26.10;99.90;;;;;;5074333;28;20016;-72
2022/07/17 06:48:13;;;;;;;7.15;2.63;;;26.10;99.90;;;;;;5073177;28;20538;-72
2022/07/17 06:50:40;;;;;;;9.13;3.22;;;26.10;99.90;;;;;;5073293;28;20429;-72
2022/07/17 06:53:06;;;;;;;6.63;2.47;;;26.10;99.90;;;;;;5090684;28;20047;-71
2022/07/17 06:55:32;;;;;;;6.55;3.03;;;26.10;99.90;;;;;;5092544;28;20508;-72
2022/07/17 06:57:58;;;;;;;6.40;2.42;;;26.10;99.90;;;;;;5092687;28;20471;-71
2022/07/17 07:00:23;;;;;;;4.53;2.72;;;26.20;99.90;;;;;;5091747;28;20428;-72
2022/07/17 07:02:49;;;;;;;2.75;2.55;;;26.20;99.90;;;;;;5092169;28;20016;-72
2022/07/17 07:05:15;;;;;;;7.05;2.63;;;26.20;99.90;;;;;;5092836;28;20020;-71
2022/07/17 07:07:41;;;;;;;3.65;2.55;;;26.20;99.90;;;;;;5092359;28;20389;-73
2022/07/17 07:10:07;;;;;;;5.65;3.47;;;26.40;99.90;;;;;;5092138;28;20020;-71
2022/07/17 07:12:33;;;;;;;8.25;3.10;;;26.30;99.90;;;;;;5090710;28;20480;-72
2022/07/17 07:14:59;;;;;;;6.15;2.90;;;26.40;99.90;;;;;;5093524;28;20047;-72
2022/07/17 07:17:25;;;;;;;4.57;2.83;;;26.50;99.90;;;;;;5093105;28;20047;-72
2022/07/17 07:19:50;;;;;;;8.15;2.63;;;26.60;99.90;;;;;;5092173;28;20049;-73
2022/07/17 07:22:16;;;;;;;6.20;2.30;;;26.70;99.90;;;;;;5099477;28;20041;-72
2022/07/17 07:24:42;;;;;;;3.30;2.28;;;26.60;99.90;;;;;;5098048;28;20054;-72
2022/07/17 07:27:08;;;;;;;5.35;2.28;;;26.60;99.90;;;;;;5104262;28;20020;-71
2022/07/17 07:29:33;;;;;;;2.90;2.60;;;26.60;99.90;;;;;;5105424;28;20024;-71
2022/07/17 07:31:59;;;;;;;2.97;2.45;;;26.80;99.90;;;;;;5095219;28;20028;-72
2022/07/17 07:34:25;;;;;;;7.45;3.20;;;26.90;99.90;;;;;;5092042;28;20032;-72
2022/07/17 07:36:51;;;;;;;3.58;2.60;;;26.90;99.90;;;;;;5092520;28;20027;-71
2022/07/17 07:39:17;;;;;;;3.22;2.38;;;26.90;99.90;;;;;;5085690;28;20039;-71
2022/07/17 07:41:42;;;;;;;2.72;2.50;;;26.90;99.90;;;;;;5086165;28;20387;-72
2022/07/17 07:44:08;;;;;;;5.00;2.33;;;27.00;99.90;;;;;;5085689;28;20020;-72
2022/07/17 07:46:34;;;;;;;3.10;2.33;;;27.00;99.90;;;;;;5082940;28;20467;-72
2022/07/17 07:49:00;;;;;;;3.20;2.63;;;27.00;99.90;;;;;;5069970;28;20489;-72
2022/07/17 07:51:26;;;;;;;3.58;2.53;;;27.10;99.90;;;;;;5070018;28;20031;-72
2022/07/17 07:53:52;;;;;;;7.97;2.75;;;27.10;99.90;;;;;;5070756;28;20091;-72
2022/07/17 07:56:18;;;;;;;4.50;2.15;;;27.10;99.90;;;;;;5070752;28;20043;-71
2022/07/17 07:58:43;;;;;;;6.18;2.58;;;27.10;99.90;;;;;;5070896;28;20021;-72
2022/07/17 08:01:09;;;;;;;3.55;2.78;;;27.20;99.90;;;;;;5070432;28;20103;-73
2022/07/17 08:03:35;;;;;;;9.27;2.85;;;27.20;99.90;;;;;;5069817;28;20021;-72
2022/07/17 08:06:01;;;;;;;2.72;2.53;;;27.30;99.90;;;;;;5069607;28;20028;-72
2022/07/17 08:08:26;;;;;;;5.20;2.50;;;27.40;99.90;;;;;;5073397;28;20051;-71
2022/07/17 08:10:52;;;;;;;4.38;2.05;;;27.60;99.90;;;;;;5090645;28;20027;-72
2022/07/17 08:13:18;;;;;;;11.23;3.05;;;27.70;99.90;;;;;;5089835;28;20056;-72
2022/07/17 08:15:44;;;;;;;4.70;3.00;;;27.50;99.90;;;;;;5090822;28;20032;-71
2022/07/17 08:18:10;;;;;;;2.90;2.30;;;27.50;99.90;;;;;;5090683;28;20028;-72
2022/07/17 08:20:36;;;;;;;6.78;3.03;;;27.70;99.90;;;;;;5090411;28;20402;-72
2022/07/17 08:23:02;;;;;;;5.32;2.53;;;27.80;99.90;;;;;;5090663;28;20024;-72
2022/07/17 08:25:28;;;;;;;3.30;2.50;;;27.90;99.90;;;;;;5089113;28;20017;-72
2022/07/17 08:27:54;;;;;;;6.05;2.85;;;28.10;99.90;;;;;;5090319;28;20028;-72
2022/07/17 08:30:20;;;;;;;3.10;2.40;;;28.20;99.90;;;;;;5090258;28;20016;-72
2022/07/17 08:32:46;;;;;;;8.15;2.58;;;28.20;99.90;;;;;;5091644;28;20039;-72
2022/07/17 08:35:11;;;;;;;4.05;2.83;;;28.10;99.90;;;;;;5094279;28;20040;-72
2022/07/17 08:37:47;;;;;;;5.07;2.00;;;28.00;99.90;;;;;;5094169;28;20145;-72
2022/07/17 08:40:28;;;;;;;5.57;2.20;;;27.90;99.90;;;;;;5082394;28;20439;-73
2022/07/17 08:42:55;;;;;;;2.45;2.03;;;28.00;99.90;;;;;;5072675;28;20029;-73
2022/07/17 08:45:22;;;;;;;5.68;2.20;;;28.20;99.90;;;;;;5072762;28;20033;-72
2022/07/17 08:47:51;;;;;;;3.03;2.72;;;28.10;99.90;;;;;;5073907;28;20020;-72
2022/07/17 08:50:24;;;;;;;3.05;2.75;;;28.20;99.90;;;;;;5073975;28;20013;-72
2022/07/17 08:52:50;;;;;;;2.78;2.58;;;28.20;99.90;;;;;;5073642;28;20447;-72
2022/07/17 08:55:16;;;;;;;6.00;2.75;;;28.20;99.90;;;;;;5080267;28;20020;-73
2022/07/17 08:57:43;;;;;;;2.80;2.50;;;28.20;99.90;;;;;;5074036;28;20508;-72
2022/07/17 09:00:12;;;;;;;3.88;2.90;;;28.30;99.90;;;;;;5074605;28;20283;-73
2022/07/17 09:02:38;;;;;;;4.95;3.15;;;28.30;99.90;;;;;;5094356;28;20012;-73
2022/07/17 09:05:05;;;;;;;3.97;2.75;;;28.40;99.90;;;;;;5094307;28;20099;-73
2022/07/17 09:07:32;;;;;;;9.60;3.05;;;28.30;99.90;;;;;;5093114;28;20024;-73
2022/07/17 09:09:58;;;;;;;4.75;3.35;;;28.40;99.90;;;;;;5094121;28;20018;-71
2022/07/17 09:12:29;;;;;;;5.22;2.63;;;28.50;99.90;;;;;;5094380;28;20485;-73
2022/07/17 09:14:55;;;;;;;9.03;2.27;;;28.50;99.90;;;;;;5082945;28;20458;-73
2022/07/17 09:17:22;;;;;;;5.40;2.40;;;28.50;99.90;;;;;;5073614;28;20672;-73
2022/07/17 09:19:48;;;;;;;3.72;2.45;;;28.40;99.90;;;;;;5073499;28;20059;-73
2022/07/17 09:22:17;;;;;;;2.88;2.38;;;28.50;99.90;;;;;;5073830;28;20034;-71
2022/07/17 09:24:47;;;;;;;6.20;3.78;;;28.70;99.90;;;;;;5073642;28;20100;-72
2022/07/17 09:27:18;;;;;;;5.70;2.63;;;28.70;99.90;;;;;;5073917;28;20322;-72
2022/07/17 09:29:51;;;;;;;3.75;2.90;;;28.90;99.90;;;;;;5071792;28;20020;-72
2022/07/17 09:32:18;;;;;;;5.70;2.70;;;28.70;99.90;;;;;;5071809;28;20040;-72
2022/07/17 09:34:46;;;;;;;4.60;3.65;;;28.80;99.90;;;;;;5078715;28;20486;-72
2022/07/17 09:37:11;;;;;;;2.83;2.55;;;28.60;99.90;;;;;;5073260;28;20031;-72
2022/07/17 09:39:39;;;;;;;5.88;3.45;;;28.70;99.90;;;;;;5073082;28;20104;-72
2022/07/17 09:42:06;;;;;;;6.88;3.22;;;28.70;99.90;;;;;;5071393;28;20025;-72
2022/07/17 09:44:31;;;;;;;4.53;2.80;;;28.90;99.90;;;;;;5070563;28;20067;-72
2022/07/17 09:46:57;;;;;;;4.75;2.78;;;29.00;99.90;;;;;;5072971;28;20044;-72
2022/07/17 09:49:27;;;;;;;13.88;3.67;;;28.90;99.90;;;;;;5072295;28;20056;-73
2022/07/17 09:51:54;;;;;;;7.10;3.78;;;29.00;99.90;;;;;;5071921;28;20040;-73
2022/07/17 09:54:23;;;;;;;5.53;3.05;;;29.00;99.90;;;;;;5073564;28;20036;-72
2022/07/17 09:56:58;;;;;;;7.45;3.60;;;29.10;99.90;;;;;;5071793;28;20032;-72
2022/07/17 09:59:29;;;;;;;8.55;3.03;;;29.10;99.90;;;;;;5074753;28;20452;-72
2022/07/17 10:01:55;;;;;;;3.17;2.87;;;29.10;99.90;;;;;;5092507;28;20115;-73
2022/07/17 10:04:21;;;;;;;6.57;3.00;;;29.10;99.90;;;;;;5092928;28;20584;-72
2022/07/17 10:06:47;;;;;;;4.07;2.80;;;29.10;99.90;;;;;;5091710;28;20020;-72
2022/07/17 10:09:13;;;;;;;6.25;2.47;;;29.30;99.90;;;;;;5092637;28;20021;-72
2022/07/17 10:11:41;;;;;;;3.17;2.13;;;29.30;99.90;;;;;;5091802;28;20089;-73
2022/07/17 10:14:12;;;;;;;4.30;3.25;;;29.40;99.90;;;;;;5091596;28;20024;-72
2022/07/17 10:16:38;;;;;;;2.72;2.15;;;29.30;99.90;;;;;;5092817;28;20397;-72
2022/07/17 10:19:22;;;;;;;5.22;2.25;;;29.40;99.90;;;;;;5092775;28;20444;-71
2022/07/17 10:21:59;;;;;;;9.82;2.72;;;29.40;99.90;;;;;;5093828;28;20024;-72
2022/07/17 10:24:27;;;;;;;3.92;2.30;;;29.30;99.90;;;;;;5094116;28;20367;-72
2022/07/17 10:26:53;;;;;;;5.47;2.40;;;29.30;99.90;;;;;;5093955;28;20062;-73
2022/07/17 10:29:39;;;;;;;3.75;2.85;;;29.40;99.90;;;;;;5093217;28;20020;-72
2022/07/17 10:32:13;;;;;;;2.92;2.17;;;29.60;99.90;;;;;;5072781;28;20024;-73
2022/07/17 10:34:40;;;;;;;4.50;2.40;;;29.80;99.90;;;;;;5072260;28;20145;-71
2022/07/17 10:37:32;;;;;;;4.82;2.22;;;29.60;99.90;;;;;;5072729;28;20116;-71
2022/07/17 10:40:18;;;;;;;4.55;2.85;;;29.80;99.90;;;;;;5072951;28;20048;-72
2022/07/17 10:42:59;;;;;;;4.40;2.63;;;29.90;99.90;;;;;;5072421;28;20452;-71
2022/07/17 10:45:38;;;;;;;2.90;1.85;;;30.00;99.90;;;;;;5072520;28;20032;-72
2022/07/17 10:48:08;;;;;;;2.22;1.98;;;30.20;99.90;;;;;;5071271;28;20037;-71
2022/07/17 10:50:45;;;;;;;4.25;2.22;;;30.10;99.90;;;;;;5072449;28;20406;-71
2022/07/17 10:53:22;;;;;;;3.97;2.05;;;30.10;99.90;;;;;;5071455;28;20111;-73
2022/07/17 10:55:51;;;;;;;5.28;1.80;;;30.10;99.90;;;;;;5072536;28;20363;-72
2022/07/17 10:58:21;;;;;;;3.70;2.63;;;29.80;99.90;;;;;;5071375;28;20095;-72
2022/07/17 11:01:09;;;;;;;4.38;2.75;;;30.00;99.90;;;;;;5077091;28;20489;-72
2022/07/17 11:03:39;;;;;;;15.07;2.35;;;30.10;99.90;;;;;;5092708;28;20059;-72
2022/07/17 11:06:16;;;;;;;4.00;3.03;;;30.20;99.90;;;;;;5090976;28;20027;-72
2022/07/17 11:08:47;;;;;;;3.00;2.33;;;30.30;99.90;;;;;;5092623;28;20021;-71
2022/07/17 11:11:13;;;;;;;11.00;3.13;;;30.40;99.90;;;;;;5091431;28;20024;-72
2022/07/17 11:13:39;;;;;;;5.38;2.72;;;30.60;99.90;;;;;;5090767;28;20028;-72
2022/07/17 11:16:05;;;;;;;6.80;2.38;;;30.80;99.90;;;;;;5092034;28;20027;-72
2022/07/17 11:18:30;;;;;;;2.97;2.65;;;30.70;99.90;;;;;;5090255;28;20028;-72
2022/07/17 11:20:59;;;;;;;2.58;2.33;;;30.70;99.90;;;;;;5089616;28;20028;-74
2022/07/17 11:23:28;;;;;;;7.90;2.20;;;30.50;99.90;;;;;;5092046;28;20469;-72
2022/07/17 11:26:06;;;;;;;3.38;2.17;;;30.40;99.90;;;;;;5090277;28;20107;-72
2022/07/17 11:28:44;;;;;;;2.80;2.03;;;30.40;99.90;;;;;;5091422;28;20028;-72
2022/07/17 11:31:19;;;;;;;4.18;2.50;;;30.40;99.90;;;;;;5089265;28;20428;-72
2022/07/17 11:34:08;;;;;;;8.00;2.45;;;30.60;99.90;;;;;;5072172;28;20048;-72
2022/07/17 11:36:35;;;;;;;8.45;2.83;;;30.80;99.90;;;;;;5071405;28;20063;-73
2022/07/17 11:39:10;;;;;;;6.57;3.55;;;30.80;99.90;;;;;;5069044;28;20021;-73
2022/07/17 11:41:42;;;;;;;6.15;2.65;;;30.80;99.90;;;;;;5070749;28;20024;-72
2022/07/17 11:44:11;;;;;;;6.30;3.25;;;30.90;99.90;;;;;;5069257;28;20021;-73
2022/07/17 11:46:39;;;;;;;5.00;3.22;;;31.00;99.90;;;;;;5071939;28;20025;-73
2022/07/17 11:49:06;;;;;;;2.53;2.33;;;30.90;99.90;;;;;;5070351;28;20020;-73
2022/07/17 11:51:37;;;;;;;9.80;3.25;;;31.00;99.90;;;;;;5068985;28;20040;-73
2022/07/17 11:54:08;;;;;;;2.10;1.92;;;30.80;99.90;;;;;;5070216;28;20048;-72
2022/07/17 11:56:34;;;;;;;6.43;2.75;;;30.70;99.90;;;;;;5070699;28;20028;-73
2022/07/17 11:59:00;;;;;;;3.47;2.15;;;30.80;99.90;;;;;;5070427;28;20085;-73
2022/07/17 12:01:39;;;;;;;7.95;2.55;;;30.80;99.90;;;;;;5081763;28;20065;-73
2022/07/17 12:04:08;;;;;;;12.35;2.63;;;30.80;99.90;;;;;;5089863;28;20024;-73
2022/07/17 12:06:34;;;;;;;3.20;2.50;;;31.10;99.90;;;;;;5090249;28;20024;-72
2022/07/17 12:09:00;;;;;;;8.88;2.85;;;31.30;99.90;;;;;;5089537;28;20024;-72
2022/07/17 12:11:25;;;;;;;5.20;2.53;;;31.40;99.90;;;;;;5089222;28;20024;-71
2022/07/17 12:13:51;;;;;;;6.10;2.65;;;31.50;99.90;;;;;;5090352;28;20050;-72
2022/07/17 12:16:28;;;;;;;5.38;2.17;;;31.30;99.90;;;;;;5090456;28;20024;-73
2022/07/17 12:18:57;;;;;;;7.28;2.88;;;31.20;99.90;;;;;;5090106;28;20099;-73
2022/07/17 12:21:23;;;;;;;4.63;2.50;;;31.30;99.90;;;;;;5089078;28;20020;-73
2022/07/17 12:24:00;;;;;;;2.35;2.10;;;31.30;99.90;;;;;;5088921;28;20020;-72
2022/07/17 12:26:27;;;;;;;3.55;2.13;;;31.30;99.90;;;;;;5090463;28;20036;-74
2022/07/17 12:28:53;;;;;;;5.35;2.90;;;31.30;99.90;;;;;;5088841;28;20020;-73
2022/07/17 12:31:20;;;;;;;4.63;2.35;;;31.30;99.90;;;;;;5086758;28;20024;-73
2022/07/17 12:33:46;;;;;;;3.25;2.67;;;31.40;99.90;;;;;;5070074;28;20088;-73
2022/07/17 12:36:12;;;;;;;2.97;2.15;;;31.50;99.90;;;;;;5094023;28;20040;-71
2022/07/17 12:38:38;;;;;;;9.15;3.58;;;31.70;99.90;;;;;;5095627;28;20470;-72
2022/07/17 12:41:04;;;;;;;3.33;2.72;;;31.50;99.90;;;;;;5091328;28;20024;-72
2022/07/17 12:43:30;;;;;;;2.45;2.25;;;31.50;99.90;;;;;;5089118;28;20031;-72
2022/07/17 12:45:56;;;;;;;2.67;2.13;;;31.60;99.90;;;;;;5090619;28;20031;-73